sensor_id;sensor_type;location;lat;lon;timestamp;temperature;humidity
53711;DHT22;39605;52.704;6.752;2022-12-29T00:31:15;10.20;99.90
53711;DHT22;39605;52.704;6.752;2022-12-29T00:41:21;10.20;99.90
53711;DHT22;39605;52.704;6.752;2022-12-29T00:44:44;10.20;99.90
53711;DHT22;39605;52.704;6.752;2022-12-29T00:48:01;10.20;99.90
53711;DHT22;39605;52.704;6.752;2022-12-29T00:51:02;10.10;99.90
53711;DHT22;39605;52.704;6.752;2022-12-29T00:54:08;10.30;99.90
53711;DHT22;39605;52.704;6.752;2022-12-29T00:57:22;10.30;99.90
53711;DHT22;39605;52.704;6.752;2022-12-29T01:00:16;10.30;99.90
53711;DHT22;39605;52.704;6.752;2022-12-29T01:07:24;10.40;99.90
53711;DHT22;39605;52.704;6.752;2022-12-29T01:10:46;10.50;99.90
53711;DHT22;39605;52.704;6.752;2022-12-29T01:13:37;10.50;99.90
53711;DHT22;39605;52.704;6.752;2022-12-29T01:20:11;10.50;99.90
53711;DHT22;39605;52.704;6.752;2022-12-29T01:35:41;10.60;99.90
53711;DHT22;39605;52.704;6.752;2022-12-29T01:38:51;10.60;99.90
53711;DHT22;39605;52.704;6.752;2022-12-29T01:41:40;10.70;99.90
53711;DHT22;39605;52.704;6.752;2022-12-29T01:47:41;10.60;99.90
53711;DHT22;39605;52.704;6.752;2022-12-29T01:54:31;10.80;99.90
53711;DHT22;39605;52.704;6.752;2022-12-29T02:00:50;10.80;99.90
53711;DHT22;39605;52.704;6.752;2022-12-29T02:03:56;10.80;99.90
53711;DHT22;39605;52.704;6.752;2022-12-29T02:07:19;10.70;99.90
53711;DHT22;39605;52.704;6.752;2022-12-29T02:10:24;10.70;99.90
53711;DHT22;39605;52.704;6.752;2022-12-29T02:13:04;10.80;99.90
53711;DHT22;39605;52.704;6.752;2022-12-29T02:35:37;10.80;99.90
53711;DHT22;39605;52.704;6.752;2022-12-29T02:52:19;10.50;99.90
53711;DHT22;39605;52.704;6.752;2022-12-29T02:55:24;10.40;99.90
53711;DHT22;39605;52.704;6.752;2022-12-29T02:58:43;10.40;99.90
53711;DHT22;39605;52.704;6.752;2022-12-29T03:05:25;10.30;99.90
53711;DHT22;39605;52.704;6.752;2022-12-29T03:08:04;10.30;99.90
53711;DHT22;39605;52.704;6.752;2022-12-29T03:13:45;10.20;99.90
53711;DHT22;39605;52.704;6.752;2022-12-29T03:16:46;10.30;99.90
53711;DHT22;39605;52.704;6.752;2022-12-29T03:19:39;10.20;99.90
53711;DHT22;39605;52.704;6.752;2022-12-29T03:22:19;10.20;99.90
53711;DHT22;39605;52.704;6.752;2022-12-29T03:25:18;10.20;99.90
53711;DHT22;39605;52.704;6.752;2022-12-29T03:27:55;10.20;99.90
53711;DHT22;39605;52.704;6.752;2022-12-29T03:30:36;10.20;99.90
53711;DHT22;39605;52.704;6.752;2022-12-29T03:33:06;10.30;99.90
53711;DHT22;39605;52.704;6.752;2022-12-29T03:36:03;10.20;99.90
53711;DHT22;39605;52.704;6.752;2022-12-29T03:38:47;10.30;99.90
53711;DHT22;39605;52.704;6.752;2022-12-29T03:41:45;10.30;99.90
53711;DHT22;39605;52.704;6.752;2022-12-29T03:44:19;10.30;99.90
53711;DHT22;39605;52.704;6.752;2022-12-29T03:47:33;10.20;99.90
53711;DHT22;39605;52.704;6.752;2022-12-29T03:50:44;10.20;99.90
53711;DHT22;39605;52.704;6.752;2022-12-29T03:56:53;10.30;99.90
53711;DHT22;39605;52.704;6.752;2022-12-29T04:00:10;10.40;99.90
53711;DHT22;39605;52.704;6.752;2022-12-29T05:12:34;10.40;99.90
53711;DHT22;39605;52.704;6.752;2022-12-29T05:25:46;10.40;99.90
53711;DHT22;39605;52.704;6.752;2022-12-29T05:36:05;10.40;99.90
53711;DHT22;39605;52.704;6.752;2022-12-29T05:39:09;10.30;99.90
53711;DHT22;39605;52.704;6.752;2022-12-29T05:42:19;10.30;99.90
53711;DHT22;39605;52.704;6.752;2022-12-29T05:45:08;10.30;99.90
53711;DHT22;39605;52.704;6.752;2022-12-29T05:54:43;10.30;99.90
53711;DHT22;39605;52.704;6.752;2022-12-29T05:57:53;10.30;99.90
53711;DHT22;39605;52.704;6.752;2022-12-29T06:04:19;10.30;99.90
53711;DHT22;39605;52.704;6.752;2022-12-29T06:07:21;10.30;99.90
53711;DHT22;39605;52.704;6.752;2022-12-29T06:17:12;10.30;99.90
53711;DHT22;39605;52.704;6.752;2022-12-29T06:20:12;10.30;99.90
53711;DHT22;39605;52.704;6.752;2022-12-29T06:23:15;10.20;99.90
53711;DHT22;39605;52.704;6.752;2022-12-29T06:29:10;10.20;99.90
53711;DHT22;39605;52.704;6.752;2022-12-29T06:34:56;10.20;99.90
53711;DHT22;39605;52.704;6.752;2022-12-29T06:40:48;10.20;99.90
53711;DHT22;39605;52.704;6.752;2022-12-29T06:47:08;10.20;99.90
53711;DHT22;39605;52.704;6.752;2022-12-29T06:49:40;10.20;99.90
53711;DHT22;39605;52.704;6.752;2022-12-29T06:52:37;10.20;99.90
53711;DHT22;39605;52.704;6.752;2022-12-29T06:55:43;10.20;99.90
53711;DHT22;39605;52.704;6.752;2022-12-29T06:58:54;10.10;99.90
53711;DHT22;39605;52.704;6.752;2022-12-29T07:01:49;10.10;99.90
53711;DHT22;39605;52.704;6.752;2022-12-29T07:14:42;9.90;99.90
53711;DHT22;39605;52.704;6.752;2022-12-29T07:21:01;9.90;99.90
53711;DHT22;39605;52.704;6.752;2022-12-29T07:24:16;9.90;99.90
53711;DHT22;39605;52.704;6.752;2022-12-29T07:33:58;9.90;99.90
53711;DHT22;39605;52.704;6.752;2022-12-29T07:44:12;9.90;99.90
53711;DHT22;39605;52.704;6.752;2022-12-29T07:47:34;10.00;99.90
53711;DHT22;39605;52.704;6.752;2022-12-29T07:54:02;9.90;99.90
53711;DHT22;39605;52.704;6.752;2022-12-29T07:59:54;9.90;99.90
53711;DHT22;39605;52.704;6.752;2022-12-29T08:09:05;9.80;99.90
53711;DHT22;39605;52.704;6.752;2022-12-29T08:15:32;9.80;99.90
53711;DHT22;39605;52.704;6.752;2022-12-29T08:18:40;9.80;99.90
53711;DHT22;39605;52.704;6.752;2022-12-29T08:21:47;9.80;99.90
53711;DHT22;39605;52.704;6.752;2022-12-29T08:24:54;9.80;99.90
53711;DHT22;39605;52.704;6.752;2022-12-29T08:34:49;9.80;99.90
53711;DHT22;39605;52.704;6.752;2022-12-29T08:41:18;9.80;99.90
53711;DHT22;39605;52.704;6.752;2022-12-29T08:47:55;9.70;99.90
53711;DHT22;39605;52.704;6.752;2022-12-29T08:51:28;9.80;99.90
53711;DHT22;39605;52.704;6.752;2022-12-29T08:54:29;9.90;99.90
53711;DHT22;39605;52.704;6.752;2022-12-29T09:07:54;10.30;99.90
53711;DHT22;39605;52.704;6.752;2022-12-29T09:27:50;10.30;99.90
53711;DHT22;39605;52.704;6.752;2022-12-29T09:34:20;10.10;99.90
53711;DHT22;39605;52.704;6.752;2022-12-29T09:41:29;9.90;99.90
53711;DHT22;39605;52.704;6.752;2022-12-29T09:44:50;9.80;99.90
53711;DHT22;39605;52.704;6.752;2022-12-29T09:51:38;9.70;99.90
53711;DHT22;39605;52.704;6.752;2022-12-29T09:57:42;9.80;99.90
53711;DHT22;39605;52.704;6.752;2022-12-29T10:03:52;9.80;99.90
53711;DHT22;39605;52.704;6.752;2022-12-29T10:15:47;10.00;99.90
53711;DHT22;39605;52.704;6.752;2022-12-29T10:22:21;10.00;99.90
53711;DHT22;39605;52.704;6.752;2022-12-29T10:24:55;10.00;99.90
53711;DHT22;39605;52.704;6.752;2022-12-29T10:27:34;10.00;99.90
53711;DHT22;39605;52.704;6.752;2022-12-29T10:30:37;10.10;99.90
53711;DHT22;39605;52.704;6.752;2022-12-29T10:33:10;10.10;99.90
53711;DHT22;39605;52.704;6.752;2022-12-29T10:36:43;10.10;99.90
53711;DHT22;39605;52.704;6.752;2022-12-29T10:39:30;10.10;99.90
53711;DHT22;39605;52.704;6.752;2022-12-29T10:42:11;10.10;99.90
53711;DHT22;39605;52.704;6.752;2022-12-29T10:45:02;9.90;99.90
53711;DHT22;39605;52.704;6.752;2022-12-29T10:50:36;9.90;99.90
53711;DHT22;39605;52.704;6.752;2022-12-29T10:53:44;9.80;99.90
53711;DHT22;39605;52.704;6.752;2022-12-29T10:56:33;9.80;99.90
53711;DHT22;39605;52.704;6.752;2022-12-29T10:59:36;9.70;99.90
53711;DHT22;39605;52.704;6.752;2022-12-29T11:12:30;9.50;99.90
53711;DHT22;39605;52.704;6.752;2022-12-29T11:17:57;9.50;99.90
53711;DHT22;39605;52.704;6.752;2022-12-29T11:20:37;9.40;99.90
53711;DHT22;39605;52.704;6.752;2022-12-29T11:23:41;9.40;99.90
53711;DHT22;39605;52.704;6.752;2022-12-29T11:27:25;9.40;99.90
53711;DHT22;39605;52.704;6.752;2022-12-29T11:29:54;9.40;99.90
53711;DHT22;39605;52.704;6.752;2022-12-29T11:32:52;9.40;99.90
53711;DHT22;39605;52.704;6.752;2022-12-29T11:36:06;9.30;99.90
53711;DHT22;39605;52.704;6.752;2022-12-29T11:38:46;9.40;99.90
53711;DHT22;39605;52.704;6.752;2022-12-29T11:41:39;9.40;99.90
53711;DHT22;39605;52.704;6.752;2022-12-29T11:44:16;9.30;99.90
53711;DHT22;39605;52.704;6.752;2022-12-29T11:46:48;9.30;99.90
53711;DHT22;39605;52.704;6.752;2022-12-29T11:49:34;9.40;99.90
53711;DHT22;39605;52.704;6.752;2022-12-29T11:52:16;9.40;99.90
53711;DHT22;39605;52.704;6.752;2022-12-29T11:54:52;9.50;99.90
53711;DHT22;39605;52.704;6.752;2022-12-29T11:57:33;9.50;99.90
53711;DHT22;39605;52.704;6.752;2022-12-29T12:00:09;9.60;99.90
53711;DHT22;39605;52.704;6.752;2022-12-29T12:20:42;10.90;99.90
53711;DHT22;39605;52.704;6.752;2022-12-29T12:23:57;10.90;99.90
53711;DHT22;39605;52.704;6.752;2022-12-29T12:34:02;11.10;99.90
53711;DHT22;39605;52.704;6.752;2022-12-29T13:23:48;10.00;99.90
53711;DHT22;39605;52.704;6.752;2022-12-29T13:30:24;9.80;99.90
53711;DHT22;39605;52.704;6.752;2022-12-29T13:36:29;9.70;99.90
53711;DHT22;39605;52.704;6.752;2022-12-29T13:50:10;9.50;99.90
53711;DHT22;39605;52.704;6.752;2022-12-29T13:56:11;9.40;99.90
53711;DHT22;39605;52.704;6.752;2022-12-29T14:03:12;9.40;99.90
53711;DHT22;39605;52.704;6.752;2022-12-29T14:06:32;9.40;99.90
53711;DHT22;39605;52.704;6.752;2022-12-29T14:15:27;9.40;99.90
53711;DHT22;39605;52.704;6.752;2022-12-29T14:38:24;9.50;99.90
53711;DHT22;39605;52.704;6.752;2022-12-29T14:50:59;9.50;99.90
53711;DHT22;39605;52.704;6.752;2022-12-29T14:54:34;9.50;99.90
53711;DHT22;39605;52.704;6.752;2022-12-29T15:00:35;9.50;99.90
53711;DHT22;39605;52.704;6.752;2022-12-29T15:03:28;9.50;99.90
53711;DHT22;39605;52.704;6.752;2022-12-29T15:06:13;9.50;99.90
53711;DHT22;39605;52.704;6.752;2022-12-29T15:09:41;9.50;99.90
53711;DHT22;39605;52.704;6.752;2022-12-29T15:13:00;9.40;99.90
53711;DHT22;39605;52.704;6.752;2022-12-29T15:22:37;9.30;99.90
53711;DHT22;39605;52.704;6.752;2022-12-29T15:25:44;9.40;99.90
53711;DHT22;39605;52.704;6.752;2022-12-29T15:28:17;9.30;99.90
53711;DHT22;39605;52.704;6.752;2022-12-29T15:38:47;9.20;99.90
53711;DHT22;39605;52.704;6.752;2022-12-29T15:45:08;9.10;99.90
53711;DHT22;39605;52.704;6.752;2022-12-29T15:47:40;9.10;99.90
53711;DHT22;39605;52.704;6.752;2022-12-29T15:50:28;9.10;99.90
53711;DHT22;39605;52.704;6.752;2022-12-29T15:53:18;9.00;99.90
53711;DHT22;39605;52.704;6.752;2022-12-29T15:59:45;9.10;99.90
53711;DHT22;39605;52.704;6.752;2022-12-29T16:07:01;9.10;99.90
53711;DHT22;39605;52.704;6.752;2022-12-29T16:10:21;9.00;99.90
53711;DHT22;39605;52.704;6.752;2022-12-29T16:13:27;8.90;99.90
53711;DHT22;39605;52.704;6.752;2022-12-29T16:16:17;8.90;99.90
53711;DHT22;39605;52.704;6.752;2022-12-29T16:19:52;8.90;99.90
53711;DHT22;39605;52.704;6.752;2022-12-29T16:22:58;8.90;99.90
53711;DHT22;39605;52.704;6.752;2022-12-29T16:25:50;8.90;99.90
53711;DHT22;39605;52.704;6.752;2022-12-29T16:29:01;8.80;99.90
53711;DHT22;39605;52.704;6.752;2022-12-29T16:37:36;8.80;99.90
53711;DHT22;39605;52.704;6.752;2022-12-29T16:43:42;8.70;99.90
53711;DHT22;39605;52.704;6.752;2022-12-29T16:46:55;8.70;99.90
53711;DHT22;39605;52.704;6.752;2022-12-29T16:49:47;8.60;99.90
53711;DHT22;39605;52.704;6.752;2022-12-29T16:52:39;8.70;99.90
53711;DHT22;39605;52.704;6.752;2022-12-29T16:55:23;8.70;99.90
53711;DHT22;39605;52.704;6.752;2022-12-29T16:57:57;8.70;99.90
53711;DHT22;39605;52.704;6.752;2022-12-29T17:00:54;8.60;99.90
53711;DHT22;39605;52.704;6.752;2022-12-29T17:03:31;8.70;99.90
53711;DHT22;39605;52.704;6.752;2022-12-29T17:06:20;8.60;99.90
53711;DHT22;39605;52.704;6.752;2022-12-29T17:09:25;8.60;99.90
53711;DHT22;39605;52.704;6.752;2022-12-29T17:12:13;8.60;99.90
53711;DHT22;39605;52.704;6.752;2022-12-29T17:21:28;8.60;99.90
53711;DHT22;39605;52.704;6.752;2022-12-29T17:24:46;8.60;99.90
53711;DHT22;39605;52.704;6.752;2022-12-29T17:30:27;8.60;99.90
53711;DHT22;39605;52.704;6.752;2022-12-29T17:36:57;8.70;99.90
53711;DHT22;39605;52.704;6.752;2022-12-29T17:46:09;8.60;99.90
53711;DHT22;39605;52.704;6.752;2022-12-29T17:49:19;8.60;99.90
53711;DHT22;39605;52.704;6.752;2022-12-29T17:52:34;8.70;99.90
53711;DHT22;39605;52.704;6.752;2022-12-29T17:55:39;8.70;99.90
53711;DHT22;39605;52.704;6.752;2022-12-29T18:01:45;8.50;99.90
53711;DHT22;39605;52.704;6.752;2022-12-29T18:04:41;8.50;99.90
53711;DHT22;39605;52.704;6.752;2022-12-29T18:07:49;8.40;99.90
53711;DHT22;39605;52.704;6.752;2022-12-29T18:17:23;8.40;99.90
53711;DHT22;39605;52.704;6.752;2022-12-29T18:19:55;8.40;99.90
53711;DHT22;39605;52.704;6.752;2022-12-29T18:23:04;8.40;99.90
53711;DHT22;39605;52.704;6.752;2022-12-29T18:26:10;8.50;99.90
53711;DHT22;39605;52.704;6.752;2022-12-29T18:32:14;8.50;99.90
53711;DHT22;39605;52.704;6.752;2022-12-29T18:38:46;8.60;99.90
53711;DHT22;39605;52.704;6.752;2022-12-29T18:41:25;8.60;99.90
53711;DHT22;39605;52.704;6.752;2022-12-29T18:44:17;8.60;99.90
53711;DHT22;39605;52.704;6.752;2022-12-29T18:47:18;8.60;99.90
53711;DHT22;39605;52.704;6.752;2022-12-29T18:58:38;8.40;99.90
53711;DHT22;39605;52.704;6.752;2022-12-29T19:01:21;8.40;99.90
53711;DHT22;39605;52.704;6.752;2022-12-29T19:04:18;8.30;99.90
53711;DHT22;39605;52.704;6.752;2022-12-29T19:13:49;8.20;99.90
53711;DHT22;39605;52.704;6.752;2022-12-29T19:20:03;8.00;99.90
53711;DHT22;39605;52.704;6.752;2022-12-29T19:23:14;8.00;99.90
53711;DHT22;39605;52.704;6.752;2022-12-29T19:26:31;8.00;99.90
53711;DHT22;39605;52.704;6.752;2022-12-29T19:51:02;7.90;99.90
53711;DHT22;39605;52.704;6.752;2022-12-29T20:13:40;7.90;99.90
53711;DHT22;39605;52.704;6.752;2022-12-29T20:16:35;8.00;99.90
53711;DHT22;39605;52.704;6.752;2022-12-29T20:19:03;8.00;99.90
53711;DHT22;39605;52.704;6.752;2022-12-29T20:24:51;8.00;99.90
53711;DHT22;39605;52.704;6.752;2022-12-29T20:27:55;8.00;99.90
53711;DHT22;39605;52.704;6.752;2022-12-29T20:31:02;8.00;99.90
53711;DHT22;39605;52.704;6.752;2022-12-29T20:33:55;7.90;99.90
53711;DHT22;39605;52.704;6.752;2022-12-29T20:36:38;7.80;99.90
53711;DHT22;39605;52.704;6.752;2022-12-29T20:39:18;7.80;99.90
53711;DHT22;39605;52.704;6.752;2022-12-29T20:42:19;7.70;99.90
53711;DHT22;39605;52.704;6.752;2022-12-29T20:44:59;7.70;99.90
53711;DHT22;39605;52.704;6.752;2022-12-29T20:47:46;7.70;99.90
53711;DHT22;39605;52.704;6.752;2022-12-29T20:50:30;7.60;99.90
53711;DHT22;39605;52.704;6.752;2022-12-29T20:53:09;7.60;99.90
53711;DHT22;39605;52.704;6.752;2022-12-29T20:55:47;7.60;99.90
53711;DHT22;39605;52.704;6.752;2022-12-29T20:58:38;7.50;99.90
53711;DHT22;39605;52.704;6.752;2022-12-29T21:05:10;7.40;99.90
53711;DHT22;39605;52.704;6.752;2022-12-29T21:14:58;7.30;99.90
53711;DHT22;39605;52.704;6.752;2022-12-29T21:17:44;7.30;99.90
53711;DHT22;39605;52.704;6.752;2022-12-29T21:20:19;7.30;99.90
53711;DHT22;39605;52.704;6.752;2022-12-29T21:23:15;7.30;99.90
53711;DHT22;39605;52.704;6.752;2022-12-29T21:25:49;7.20;99.90
53711;DHT22;39605;52.704;6.752;2022-12-29T21:28:15;7.20;99.90
53711;DHT22;39605;52.704;6.752;2022-12-29T21:30:41;7.20;99.90
53711;DHT22;39605;52.704;6.752;2022-12-29T21:33:11;7.30;99.90
53711;DHT22;39605;52.704;6.752;2022-12-29T21:36:05;7.20;99.90
53711;DHT22;39605;52.704;6.752;2022-12-29T21:38:40;7.20;99.90
53711;DHT22;39605;52.704;6.752;2022-12-29T21:41:11;7.10;99.90
53711;DHT22;39605;52.704;6.752;2022-12-29T21:43:43;7.20;99.90
53711;DHT22;39605;52.704;6.752;2022-12-29T21:46:37;7.20;99.90
53711;DHT22;39605;52.704;6.752;2022-12-29T21:49:32;7.10;99.90
53711;DHT22;39605;52.704;6.752;2022-12-29T21:52:18;7.20;99.90
53711;DHT22;39605;52.704;6.752;2022-12-29T21:55:32;7.20;99.90
53711;DHT22;39605;52.704;6.752;2022-12-29T21:58:01;7.30;99.90
53711;DHT22;39605;52.704;6.752;2022-12-29T22:01:03;7.30;99.90
53711;DHT22;39605;52.704;6.752;2022-12-29T22:04:05;7.30;99.90
53711;DHT22;39605;52.704;6.752;2022-12-29T22:06:54;7.30;99.90
53711;DHT22;39605;52.704;6.752;2022-12-29T22:09:38;7.30;99.90
53711;DHT22;39605;52.704;6.752;2022-12-29T22:12:28;7.40;99.90
53711;DHT22;39605;52.704;6.752;2022-12-29T22:15:15;7.30;99.90
53711;DHT22;39605;52.704;6.752;2022-12-29T22:17:53;7.30;99.90
53711;DHT22;39605;52.704;6.752;2022-12-29T22:20:34;7.30;99.90
53711;DHT22;39605;52.704;6.752;2022-12-29T22:23:10;7.20;99.90
53711;DHT22;39605;52.704;6.752;2022-12-29T22:25:43;7.20;99.90
53711;DHT22;39605;52.704;6.752;2022-12-29T22:28:19;7.20;99.90
53711;DHT22;39605;52.704;6.752;2022-12-29T22:31:00;7.20;99.90
53711;DHT22;39605;52.704;6.752;2022-12-29T22:33:26;7.20;99.90
53711;DHT22;39605;52.704;6.752;2022-12-29T22:35:54;7.30;99.90
53711;DHT22;39605;52.704;6.752;2022-12-29T22:38:34;7.30;99.90
53711;DHT22;39605;52.704;6.752;2022-12-29T22:41:00;7.30;99.90
53711;DHT22;39605;52.704;6.752;2022-12-29T22:43:31;7.20;99.90
53711;DHT22;39605;52.704;6.752;2022-12-29T22:46:07;7.30;99.90
53711;DHT22;39605;52.704;6.752;2022-12-29T22:48:36;7.20;99.90
53711;DHT22;39605;52.704;6.752;2022-12-29T22:51:09;7.20;99.90
53711;DHT22;39605;52.704;6.752;2022-12-29T22:53:48;7.20;99.90
53711;DHT22;39605;52.704;6.752;2022-12-29T22:56:35;7.20;99.90
53711;DHT22;39605;52.704;6.752;2022-12-29T22:59:09;7.20;99.90
53711;DHT22;39605;52.704;6.752;2022-12-29T23:01:40;7.20;99.90
53711;DHT22;39605;52.704;6.752;2022-12-29T23:04:17;7.20;99.90
53711;DHT22;39605;52.704;6.752;2022-12-29T23:06:47;7.40;99.90
53711;DHT22;39605;52.704;6.752;2022-12-29T23:09:24;7.30;99.90
53711;DHT22;39605;52.704;6.752;2022-12-29T23:11:52;7.30;99.90
53711;DHT22;39605;52.704;6.752;2022-12-29T23:14:27;7.30;99.90
53711;DHT22;39605;52.704;6.752;2022-12-29T23:16:56;7.40;99.90
53711;DHT22;39605;52.704;6.752;2022-12-29T23:19:24;7.40;99.90
53711;DHT22;39605;52.704;6.752;2022-12-29T23:21:50;7.40;99.90
53711;DHT22;39605;52.704;6.752;2022-12-29T23:24:16;7.40;99.90
53711;DHT22;39605;52.704;6.752;2022-12-29T23:26:47;7.30;99.90
53711;DHT22;39605;52.704;6.752;2022-12-29T23:29:16;7.30;99.90
53711;DHT22;39605;52.704;6.752;2022-12-29T23:31:46;7.30;99.90
53711;DHT22;39605;52.704;6.752;2022-12-29T23:34:13;7.30;99.90
53711;DHT22;39605;52.704;6.752;2022-12-29T23:36:46;7.30;99.90
53711;DHT22;39605;52.704;6.752;2022-12-29T23:39:20;7.30;99.90
53711;DHT22;39605;52.704;6.752;2022-12-29T23:41:50;7.20;99.90
53711;DHT22;39605;52.704;6.752;2022-12-29T23:44:22;7.20;99.90
53711;DHT22;39605;52.704;6.752;2022-12-29T23:46:50;7.20;99.90
53711;DHT22;39605;52.704;6.752;2022-12-29T23:49:18;7.20;99.90
53711;DHT22;39605;52.704;6.752;2022-12-29T23:51:46;7.10;99.90
53711;DHT22;39605;52.704;6.752;2022-12-29T23:54:12;7.10;99.90
53711;DHT22;39605;52.704;6.752;2022-12-29T23:56:40;7.10;99.90
53711;DHT22;39605;52.704;6.752;2022-12-29T23:59:11;7.10;99.90
